Orange City, FL (32763)

9:59 AM EDT on October 22, 2014 (GMT -0400)
Orange City | Change Station
CLOSE
Current Station
Personal Weather Station
Location: Orange City, FL
Elevation: 92 ft
Nearby Weather Stations

Elev 92 ft 28.96 °N, 81.29 °W | Updated 4 minutes ago

Clear
Clear
70.6 °F
Feels Like 72 °F
N
0.0
Wind Variable Wind from ENE
Gusts 0.0 mph

Today
High -- | Low -- °F
--% Chance of Precip.
Yesterday
High -- | Low -- °F
Precip. -- in
7:30 AM 6:48 PM
Waning Crescent, 2% visible
Pressure 30.02 in
Visibility 10.0 miles
Clouds Clear
Heat Index 72 °F
Dew Point 63 °F
Humidity 76%
Rainfall 0.00 in
Snow Depth Not available.
UV 3 out of 12
Pollen 5.80 out of 12
Air Quality Not available.
Flu Activity Local Activity
METAR KDED 221335Z AUTO 35006KT 10SM CLR 21/15 A3002 RMK AO1

More Conditions Fewer Conditions

Pressure 30.02 in
Visibility 10.0 miles
Clouds Clear
Heat Index 72 °F
Dew Point 63 °F
Humidity 76%
Rainfall 0.00 in
Snow Depth Not available.
UV 3 out of 12
Pollen 5.80 out of 12
Air Quality Not available.
Flu Activity Local Activity
METAR KDED 221335Z AUTO 35006KT 10SM CLR 21/15 A3002 RMK AO1

More Conditions Fewer Conditions

Nowcast | as of 9:33 am EDT on October 22, 2014

A cold front over central Florida will push further south this afternoon ushering in drier air into the region. Scattered showers and an isolated lightning storm will develop in proximity to this front across the Treasure Coast and Okeechobee County later this afternoon. With the airmass drying out north of the boundary...mostly sunny skies can be expected. Temperatures will top out in the low to mid 80s area wide. Additional details...including graphics are available online at: http://www.Srh.NOAA.Gov/mlb/blog.Php

×

10-Day Weather Forecast

Almanac

Astronomy

Oct. 22, 2014 Rise Set
Actual Time 7:30 AM EDT 6:48 PM EDT
Civil Twilight 7:06 AM EDT 7:12 PM EDT
Nautical Twilight 6:38 AM EDT 7:39 PM EDT
Astronomical Twilight 6:11 AM EDT 8:07 PM EDT
Moon 6:16 AM EDT 6:09 PM EDT
Length of Visible Light 12h 05m
Length of Day
11h 17m
Tomorrow will be 1m 36s shorter.
Waning Crescent, 2% of the Moon is Illuminated
Today
Waning Crescent
Oct 23
New
Oct 30
First Quarter
Nov 6
Full
Nov 14
Last Quarter

Today's Extremes

State Highs State Lows

Community

WunderPhotos

Upload Photos

1,763,919 photos uploaded!

Nearby

Snow Depth

Station Depth Elevation
No new snow has been reported.

Earthquake Activity

City Distance Mag. Time & Date
No recent earthquake activity has been reported nearby.
Minimum magnitude displayed is 2.5.

Coastal Water Temperatures

Place Temperature
Trident Pier, FL 80.1 °F
Mayport (Bar Pilots Dock), FL 78.1 °F
Fernandina Beach, FL 75.9 °F
McKay Bay Entrance, FL 80.1 °F

Nearby Weather Stations